createdAt,value
2023-03-01T00:01:21.100Z,84.00
2023-03-01T00:04:23.134Z,84.05
2023-03-01T00:07:34.043Z,84.67
2023-03-01T00:10:35.580Z,84.63
2023-03-01T00:13:37.390Z,84.32
2023-03-01T00:16:41.052Z,85.55
2023-03-01T00:19:42.764Z,85.03
2023-03-01T00:22:44.260Z,84.64
2023-03-01T00:25:49.498Z,84.30
2023-03-01T00:28:52.016Z,85.33
2023-03-01T00:32:00.867Z,85.52
2023-03-01T00:35:09.620Z,85.67
2023-03-01T00:38:20.416Z,86.02
2023-03-01T00:41:27.572Z,84.90
2023-03-01T00:44:35.565Z,85.14
2023-03-01T00:47:37.191Z,85.42
2023-03-01T00:50:41.778Z,85.62
2023-03-01T00:53:44.914Z,86.07
2023-03-01T00:56:47.288Z,85.96
2023-03-01T01:03:13.783Z,86.30
2023-03-01T01:06:30.755Z,86.33
2023-03-01T01:09:34.244Z,86.18
2023-03-01T01:12:50.247Z,86.57
2023-03-01T01:15:52.184Z,86.63
2023-03-01T01:19:11.262Z,86.83
2023-03-01T01:22:12.913Z,86.57
2023-03-01T01:25:33.034Z,87.36
2023-03-01T01:31:51.927Z,87.63
2023-03-01T01:34:54.153Z,88.05
2023-03-01T01:38:03.954Z,87.56
2023-03-01T01:41:06.648Z,88.08
2023-03-01T01:44:20.904Z,87.59
2023-03-01T01:47:24.174Z,87.89
2023-03-01T01:50:41.271Z,88.71
2023-03-01T01:53:45.818Z,88.20
2023-03-01T01:57:03.043Z,87.91
2023-03-01T02:00:15.471Z,89.30
2023-03-01T02:03:25.236Z,88.74
2023-03-01T02:06:37.476Z,90.13
2023-03-01T02:09:46.776Z,89.79
2023-03-01T02:12:52.560Z,89.91
2023-03-01T02:15:57.165Z,90.15
2023-03-01T02:18:59.669Z,90.51
2023-03-01T02:22:54.535Z,90.25
2023-03-01T02:26:39.612Z,90.75
2023-03-01T02:29:44.997Z,90.41
2023-03-01T02:32:50.499Z,90.84
2023-03-01T02:35:56.769Z,90.86
2023-03-01T02:39:01.706Z,91.39
2023-03-01T02:42:04.915Z,91.28
2023-03-01T02:45:07.594Z,90.98
2023-03-01T02:48:12.158Z,91.85
2023-03-01T02:51:33.860Z,92.02
2023-03-01T02:55:13.801Z,92.10
2023-03-01T02:58:15.452Z,92.11
2023-03-01T03:01:17.339Z,92.74
2023-03-01T03:04:22.354Z,92.76
2023-03-01T03:07:40.482Z,92.46
2023-03-01T03:10:44.075Z,93.04
2023-03-01T03:13:49.032Z,92.11
2023-03-01T03:16:52.369Z,92.56
2023-03-01T03:19:57.028Z,93.36
2023-03-01T03:22:59.428Z,93.02
2023-03-01T03:26:14.220Z,93.02
2023-03-01T03:32:31.267Z,92.94
2023-03-01T03:35:39.108Z,93.42
2023-03-01T03:45:14.116Z,93.37
2023-03-01T03:48:19.435Z,93.30
2023-03-01T03:51:25.730Z,93.19
2023-03-01T03:54:27.269Z,94.07
2023-03-01T03:57:31.136Z,94.25
2023-03-01T04:00:38.222Z,94.48
2023-03-01T04:07:13.548Z,94.49
2023-03-01T04:10:18.189Z,94.00
2023-03-01T04:13:23.495Z,94.00
2023-03-01T04:16:25.792Z,94.06
2023-03-01T04:19:28.063Z,94.58
2023-03-01T04:22:32.956Z,94.91
2023-03-01T04:25:42.247Z,95.03
2023-03-01T04:28:49.174Z,95.21
2023-03-01T04:31:50.808Z,95.76
2023-03-01T04:34:52.479Z,95.80
2023-03-01T04:38:06.241Z,96.26
2023-03-01T04:41:11.752Z,95.38
2023-03-01T04:44:16.347Z,95.33
2023-03-01T04:47:18.354Z,95.67
2023-03-01T04:50:24.530Z,95.57
2023-03-01T04:53:26.576Z,95.57
2023-03-01T04:56:41.545Z,95.30
2023-03-01T04:59:43.087Z,95.35
2023-03-01T05:03:03.190Z,95.04
2023-03-01T05:06:05.676Z,94.57
2023-03-01T05:09:07.367Z,94.46
2023-03-01T05:12:10.605Z,94.34
2023-03-01T05:15:14.511Z,93.70
2023-03-01T05:18:23.810Z,94.58
2023-03-01T05:21:26.055Z,94.63
2023-03-01T05:24:28.866Z,94.67
2023-03-01T05:27:33.065Z,94.34
2023-03-01T05:30:35.574Z,94.51
2023-03-01T05:33:39.058Z,94.88
2023-03-01T05:37:08.582Z,94.86
2023-03-01T05:40:18.541Z,94.59
2023-03-01T05:43:20.221Z,94.55
2023-03-01T05:46:21.932Z,93.91
2023-03-01T05:49:26.953Z,94.51
2023-03-01T05:52:28.517Z,94.87
2023-03-01T05:55:33.917Z,95.39
2023-03-01T05:58:36.521Z,94.68
2023-03-01T06:01:38.787Z,94.96
2023-03-01T06:04:40.491Z,94.59
2023-03-01T06:07:45.542Z,94.93
2023-03-01T06:11:00.632Z,95.51
2023-03-01T06:14:04.347Z,95.65
2023-03-01T06:17:05.976Z,95.32
2023-03-01T06:20:22.663Z,95.02
2023-03-01T06:23:25.203Z,95.12
2023-03-01T06:26:28.857Z,94.69
2023-03-01T06:29:49.892Z,94.74
2023-03-01T06:32:52.246Z,94.95
2023-03-01T06:36:03.311Z,95.94
2023-03-01T06:39:08.727Z,95.09
2023-03-01T06:42:15.949Z,95.46
2023-03-01T06:45:19.500Z,95.02
2023-03-01T06:48:29.943Z,95.19
2023-03-01T06:51:34.528Z,95.54
2023-03-01T06:54:36.630Z,95.41
2023-03-01T06:57:38.709Z,94.91
2023-03-01T07:00:42.004Z,95.56
2023-03-01T07:03:45.246Z,95.64
2023-03-01T07:06:46.808Z,96.05
2023-03-01T07:09:54.912Z,94.94
2023-03-01T07:13:02.348Z,95.55
2023-03-01T07:16:04.154Z,95.56
2023-03-01T07:19:06.368Z,94.89
2023-03-01T07:22:08.964Z,95.60
2023-03-01T07:25:15.517Z,95.56
2023-03-01T07:28:17.175Z,95.99
2023-03-01T07:31:20.968Z,95.98
2023-03-01T07:34:29.746Z,95.42
2023-03-01T07:37:33.840Z,94.62
2023-03-01T07:40:35.990Z,95.00
2023-03-01T07:43:44.784Z,94.43
2023-03-01T07:46:57.159Z,94.64
2023-03-01T07:49:58.945Z,94.73
2023-03-01T07:53:00.579Z,95.21
2023-03-01T07:56:03.226Z,94.73
2023-03-01T07:59:07.705Z,95.47
2023-03-01T08:02:13.432Z,95.13
2023-03-01T08:05:24.052Z,94.67
2023-03-01T08:08:27.833Z,93.95
2023-03-01T08:11:29.906Z,92.70
2023-03-01T08:14:35.004Z,90.79
2023-03-01T08:17:36.664Z,91.08
2023-03-01T08:20:38.825Z,90.79
2023-03-01T08:23:44.502Z,91.02
2023-03-01T08:26:46.689Z,89.35
2023-03-01T08:29:48.459Z,87.83
2023-03-01T08:32:50.407Z,87.45
2023-03-01T08:35:52.197Z,86.41
2023-03-01T08:38:55.030Z,86.22
2023-03-01T08:41:56.775Z,85.07
2023-03-01T08:44:58.500Z,83.27
2023-03-01T08:48:00.243Z,81.35
2023-03-01T08:51:14.607Z,80.21
2023-03-01T08:54:19.112Z,79.14
2023-03-01T08:57:20.802Z,79.95
2023-03-01T09:00:22.961Z,82.14
2023-03-01T09:03:25.977Z,81.96
2023-03-01T09:06:27.624Z,80.90
2023-03-01T09:09:29.342Z,80.39
2023-03-01T09:12:30.916Z,78.32
2023-03-01T09:15:33.729Z,77.01
2023-03-01T09:18:36.963Z,76.55
2023-03-01T09:21:40.947Z,74.28
2023-03-01T09:24:43.079Z,75.22
2023-03-01T09:27:44.883Z,74.48
2023-03-01T09:30:46.489Z,73.65
2023-03-01T09:33:50.524Z,73.17
2023-03-01T09:36:52.430Z,73.58
2023-03-01T09:39:54.141Z,71.26
2023-03-01T09:43:09.667Z,70.45
2023-03-01T09:46:17.688Z,70.94
2023-03-01T09:49:24.598Z,69.82
2023-03-01T09:53:08.074Z,72.28
2023-03-01T09:56:33.386Z,69.33
2023-03-01T10:03:24.955Z,69.42
2023-03-01T10:06:34.922Z,67.28
2023-03-01T10:09:43.396Z,67.65
2023-03-01T10:12:48.181Z,66.74
2023-03-01T10:16:06.955Z,65.55
2023-03-01T10:19:15.080Z,65.56
2023-03-01T10:22:29.378Z,65.10
2023-03-01T10:25:48.215Z,65.38
2023-03-01T10:29:10.588Z,65.80
2023-03-01T10:32:13.236Z,65.03
2023-03-01T10:35:30.182Z,65.04
2023-03-01T10:38:49.060Z,66.93
2023-03-01T10:42:02.918Z,67.08
2023-03-01T10:45:36.691Z,63.16
2023-03-01T10:48:41.530Z,60.98
2023-03-01T10:51:45.930Z,63.90
2023-03-01T10:54:56.871Z,61.75
2023-03-01T10:58:09.323Z,62.70
2023-03-01T11:05:03.573Z,58.60
2023-03-01T11:08:05.416Z,62.15
2023-03-01T11:11:19.908Z,63.35
2023-03-01T11:14:28.022Z,58.75
2023-03-01T11:17:47.988Z,59.98
2023-03-01T11:21:00.798Z,61.18
2023-03-01T11:24:05.506Z,57.32
2023-03-01T11:27:39.772Z,60.24
2023-03-01T11:30:47.713Z,61.58
2023-03-01T11:34:20.764Z,58.98
2023-03-01T11:40:54.305Z,60.33
2023-03-01T11:44:13.808Z,57.12
2023-03-01T11:47:27.387Z,59.91
2023-03-01T11:50:36.714Z,58.02
2023-03-01T11:53:55.824Z,56.21
2023-03-01T11:57:08.981Z,57.58
2023-03-01T12:00:47.236Z,56.64
2023-03-01T12:04:13.932Z,54.97
2023-03-01T12:07:33.987Z,56.51
2023-03-01T12:11:13.378Z,60.31
2023-03-01T12:14:34.770Z,56.45
2023-03-01T12:17:56.687Z,56.65
2023-03-01T12:21:29.151Z,54.35
2023-03-01T12:24:30.930Z,53.94
2023-03-01T12:28:05.688Z,50.96
2023-03-01T12:31:38.854Z,51.87
2023-03-01T12:34:50.932Z,52.71
2023-03-01T12:38:26.372Z,55.21
2023-03-01T12:41:27.883Z,52.66
2023-03-01T12:45:10.515Z,53.37
2023-03-01T12:48:29.377Z,54.30
2023-03-01T12:51:33.878Z,53.07
2023-03-01T12:54:37.783Z,52.08
2023-03-01T12:58:25.652Z,51.79
2023-03-01T13:01:36.744Z,52.47
2023-03-01T13:05:01.446Z,52.07
2023-03-01T13:08:23.393Z,52.31
2023-03-01T13:11:25.174Z,54.16
2023-03-01T13:14:26.679Z,50.88
2023-03-01T13:17:44.597Z,53.56
2023-03-01T13:20:48.835Z,53.41
2023-03-01T13:23:50.491Z,51.38
2023-03-01T13:27:20.085Z,51.93
2023-03-01T13:30:42.115Z,52.47
2023-03-01T13:33:49.966Z,53.57
2023-03-01T13:37:26.746Z,52.92
2023-03-01T13:40:28.299Z,51.07
2023-03-01T13:43:33.297Z,50.56
2023-03-01T13:46:41.250Z,50.98
2023-03-01T13:50:03.634Z,48.74
2023-03-01T13:53:07.851Z,48.79
2023-03-01T13:56:15.223Z,50.47
2023-03-01T13:59:22.806Z,51.29
2023-03-01T14:02:24.362Z,49.61
2023-03-01T14:05:25.890Z,50.37
2023-03-01T14:08:29.485Z,49.17
2023-03-01T14:11:50.490Z,50.45
2023-03-01T14:15:05.565Z,48.41
2023-03-01T14:18:27.657Z,48.46
2023-03-01T14:22:13.562Z,47.54
2023-03-01T14:25:25.963Z,47.98
2023-03-01T14:28:30.519Z,47.49
2023-03-01T14:31:36.155Z,49.32
2023-03-01T14:34:45.956Z,48.32
2023-03-01T14:37:47.579Z,46.92
2023-03-01T14:40:55.535Z,46.82
2023-03-01T14:44:01.190Z,46.28
2023-03-01T14:47:03.226Z,46.66
2023-03-01T14:50:10.449Z,45.63
2023-03-01T14:53:22.816Z,47.29
2023-03-01T14:56:24.478Z,47.12
2023-03-01T14:59:26.257Z,46.55
2023-03-01T15:02:31.070Z,47.08
2023-03-01T15:05:35.111Z,46.56
2023-03-01T15:08:38.286Z,46.88
2023-03-01T15:11:42.413Z,47.69
2023-03-01T15:14:52.147Z,49.26
2023-03-01T15:18:15.624Z,48.00
2023-03-01T15:21:24.750Z,48.13
2023-03-01T15:24:28.584Z,48.58
2023-03-01T15:27:30.394Z,49.07
2023-03-01T15:30:38.899Z,49.97
2023-03-01T15:33:48.081Z,48.37
2023-03-01T15:36:51.158Z,48.81
2023-03-01T15:39:58.052Z,48.37
2023-03-01T15:43:01.215Z,50.18
2023-03-01T15:46:03.073Z,48.09
2023-03-01T15:49:20.042Z,49.27
2023-03-01T15:52:32.146Z,49.76
2023-03-01T15:55:34.382Z,49.04
2023-03-01T15:58:36.062Z,50.24
2023-03-01T16:01:37.732Z,51.86
2023-03-01T16:04:40.199Z,49.94
2023-03-01T16:07:41.844Z,51.57
2023-03-01T16:10:46.859Z,50.88
2023-03-01T16:13:49.338Z,52.01
2023-03-01T16:16:51.475Z,51.95
2023-03-01T16:19:53.114Z,52.47
2023-03-01T16:22:55.392Z,52.64
2023-03-01T16:26:00.582Z,52.32
2023-03-01T16:29:02.263Z,53.02
2023-03-01T16:32:04.239Z,53.45
2023-03-01T16:35:10.061Z,54.15
2023-03-01T16:38:11.945Z,54.23
2023-03-01T16:41:16.794Z,54.92
2023-03-01T16:44:18.435Z,54.93
2023-03-01T16:47:21.926Z,54.88
2023-03-01T16:50:23.819Z,55.50
2023-03-01T16:53:25.474Z,55.38
2023-03-01T16:56:27.140Z,56.02
2023-03-01T16:59:28.735Z,56.85
2023-03-01T17:02:30.304Z,57.51
2023-03-01T17:05:31.873Z,57.63
2023-03-01T17:08:34.060Z,58.55
2023-03-01T17:11:36.549Z,59.71
2023-03-01T17:14:39.253Z,60.61
2023-03-01T17:17:40.954Z,61.21
2023-03-01T17:20:42.600Z,62.25
2023-03-01T17:23:45.388Z,63.20
2023-03-01T17:26:47.193Z,63.87
2023-03-01T17:29:48.854Z,64.28
2023-03-01T17:32:50.709Z,64.09
2023-03-01T17:35:53.057Z,64.53
2023-03-01T17:38:54.715Z,64.90
2023-03-01T17:41:57.848Z,65.01
2023-03-01T17:45:00.594Z,65.10
2023-03-01T17:48:02.232Z,65.47
2023-03-01T17:51:09.748Z,65.56
2023-03-01T17:54:11.633Z,65.50
2023-03-01T17:57:14.129Z,65.68
2023-03-01T18:00:17.014Z,65.66
2023-03-01T18:03:18.705Z,65.72
2023-03-01T18:06:23.563Z,66.58
2023-03-01T18:09:27.617Z,67.13
2023-03-01T18:12:30.947Z,66.98
2023-03-01T18:15:33.700Z,67.39
2023-03-01T18:18:36.086Z,66.93
2023-03-01T18:21:37.707Z,67.59
2023-03-01T18:24:39.563Z,68.22
2023-03-01T18:27:41.297Z,68.43
2023-03-01T18:30:43.187Z,68.56
2023-03-01T18:33:46.572Z,68.66
2023-03-01T18:37:08.056Z,68.57
2023-03-01T18:40:10.414Z,69.28
2023-03-01T18:43:12.477Z,69.32
2023-03-01T18:46:14.807Z,68.83
2023-03-01T18:49:16.535Z,69.13
2023-03-01T18:52:18.210Z,68.63
2023-03-01T18:55:19.805Z,69.30
2023-03-01T18:58:21.428Z,69.80
2023-03-01T19:01:28.213Z,69.80
2023-03-01T19:04:29.904Z,70.37
2023-03-01T19:07:31.982Z,70.57
2023-03-01T19:10:33.710Z,70.92
2023-03-01T19:13:37.418Z,71.06
2023-03-01T19:16:39.124Z,71.31
2023-03-01T19:19:40.811Z,70.96
2023-03-01T19:22:42.491Z,70.89
2023-03-01T19:25:44.167Z,70.83
2023-03-01T19:28:46.409Z,71.35
2023-03-01T19:31:48.044Z,71.23
2023-03-01T19:34:49.653Z,70.87
2023-03-01T19:37:51.255Z,70.61
2023-03-01T19:40:53.115Z,70.42
2023-03-01T19:43:54.968Z,70.73
2023-03-01T19:46:57.716Z,70.92
2023-03-01T19:49:59.490Z,70.86
2023-03-01T19:53:01.133Z,70.41
2023-03-01T19:56:03.135Z,70.49
2023-03-01T19:59:06.483Z,71.28
2023-03-01T20:02:09.927Z,71.09
2023-03-01T20:05:11.695Z,70.92
2023-03-01T20:08:13.342Z,71.94
2023-03-01T20:11:16.999Z,71.40
2023-03-01T20:14:22.310Z,71.33
2023-03-01T20:17:25.351Z,70.99
2023-03-01T20:20:27.067Z,71.03
2023-03-01T20:23:29.281Z,70.87
2023-03-01T20:26:32.661Z,70.89
2023-03-01T20:29:34.488Z,72.70
2023-03-01T20:32:36.281Z,72.78
2023-03-01T20:35:42.177Z,72.03
2023-03-01T20:38:43.812Z,72.43
2023-03-01T20:41:45.595Z,72.49
2023-03-01T20:44:47.209Z,72.30
2023-03-01T20:47:49.705Z,72.33
2023-03-01T20:50:51.879Z,72.79
2023-03-01T20:53:53.912Z,73.58
2023-03-01T20:56:55.668Z,73.40
2023-03-01T20:59:57.430Z,73.78
2023-03-01T21:02:59.143Z,73.25
2023-03-01T21:06:03.248Z,73.92
2023-03-01T21:09:06.056Z,73.75
2023-03-01T21:12:07.977Z,74.15
2023-03-01T21:15:13.147Z,75.00
2023-03-01T21:18:16.722Z,75.44
2023-03-01T21:21:21.003Z,75.60
2023-03-01T21:24:22.625Z,74.74
2023-03-01T21:27:24.345Z,74.72
2023-03-01T21:30:25.996Z,75.46
2023-03-01T21:33:27.616Z,75.51
2023-03-01T21:36:29.557Z,74.17
2023-03-01T21:39:32.099Z,74.72
2023-03-01T21:42:35.057Z,74.40
2023-03-01T21:45:36.719Z,74.01
2023-03-01T21:48:40.068Z,74.86
2023-03-01T21:51:42.771Z,75.03
2023-03-01T21:54:51.264Z,75.33
2023-03-01T21:57:52.801Z,75.78
2023-03-01T22:01:05.985Z,76.00
2023-03-01T22:04:07.820Z,76.69
2023-03-01T22:07:09.706Z,76.68
2023-03-01T22:10:11.565Z,76.97
2023-03-01T22:13:13.364Z,76.82
2023-03-01T22:16:16.245Z,76.40
2023-03-01T22:19:18.175Z,75.68
2023-03-01T22:22:19.861Z,75.42
2023-03-01T22:25:21.497Z,75.24
2023-03-01T22:28:23.250Z,74.73
2023-03-01T22:31:26.071Z,74.09
2023-03-01T22:34:28.083Z,74.00
2023-03-01T22:37:29.774Z,74.01
2023-03-01T22:40:31.468Z,74.76
2023-03-01T22:43:33.647Z,75.55
2023-03-01T22:46:35.599Z,76.40
2023-03-01T22:49:37.317Z,77.66
2023-03-01T22:52:39.762Z,77.41
2023-03-01T22:55:41.494Z,77.45
2023-03-01T22:58:43.464Z,77.80
2023-03-01T23:01:47.739Z,78.62
2023-03-01T23:04:49.626Z,79.23
2023-03-01T23:07:51.259Z,78.08
2023-03-01T23:10:52.894Z,78.75
2023-03-01T23:13:55.610Z,79.51
2023-03-01T23:16:57.638Z,78.95
2023-03-01T23:19:59.250Z,79.25
2023-03-01T23:23:01.617Z,78.55
2023-03-01T23:26:03.454Z,78.79
2023-03-01T23:29:05.028Z,79.34
2023-03-01T23:32:07.280Z,79.24
2023-03-01T23:35:10.458Z,79.55
2023-03-01T23:38:12.191Z,79.89
2023-03-01T23:41:16.413Z,81.16
2023-03-01T23:44:20.090Z,81.34
2023-03-01T23:47:21.911Z,81.16
2023-03-01T23:50:24.401Z,81.20
2023-03-01T23:53:27.874Z,81.55
2023-03-01T23:56:32.610Z,81.42
2023-03-01T23:59:34.400Z,81.78
